sensor_id;sensor_type;location;lat;lon;timestamp;P1;durP1;ratioP1;P2;durP2;ratioP2
40058;SDS011;25763;49.972;8.568;2023-05-15T00:02:08;19.95;;;18.85;;
40058;SDS011;25763;49.972;8.568;2023-05-15T00:04:34;23.77;;;22.48;;
40058;SDS011;25763;49.972;8.568;2023-05-15T00:06:59;25.92;;;24.55;;
40058;SDS011;25763;49.972;8.568;2023-05-15T00:09:25;25.25;;;23.92;;
40058;SDS011;25763;49.972;8.568;2023-05-15T00:11:50;25.05;;;23.67;;
40058;SDS011;25763;49.972;8.568;2023-05-15T00:14:15;24.92;;;23.60;;
40058;SDS011;25763;49.972;8.568;2023-05-15T00:16:41;27.77;;;26.27;;
40058;SDS011;25763;49.972;8.568;2023-05-15T00:19:06;24.60;;;23.30;;
40058;SDS011;25763;49.972;8.568;2023-05-15T00:21:32;24.25;;;22.95;;
40058;SDS011;25763;49.972;8.568;2023-05-15T00:23:57;26.02;;;24.63;;
40058;SDS011;25763;49.972;8.568;2023-05-15T00:26:22;24.60;;;23.27;;
40058;SDS011;25763;49.972;8.568;2023-05-15T00:28:48;24.67;;;23.38;;
40058;SDS011;25763;49.972;8.568;2023-05-15T00:31:14;25.23;;;23.83;;
40058;SDS011;25763;49.972;8.568;2023-05-15T00:33:39;23.00;;;21.77;;
40058;SDS011;25763;49.972;8.568;2023-05-15T00:36:04;22.45;;;21.25;;
40058;SDS011;25763;49.972;8.568;2023-05-15T00:38:30;23.02;;;21.73;;
40058;SDS011;25763;49.972;8.568;2023-05-15T00:40:58;21.60;;;20.30;;
40058;SDS011;25763;49.972;8.568;2023-05-15T00:43:24;24.90;;;23.60;;
40058;SDS011;25763;49.972;8.568;2023-05-15T00:45:50;21.38;;;20.23;;
40058;SDS011;25763;49.972;8.568;2023-05-15T00:48:17;23.08;;;21.70;;
40058;SDS011;25763;49.972;8.568;2023-05-15T00:50:43;23.52;;;22.27;;
40058;SDS011;25763;49.972;8.568;2023-05-15T00:53:09;22.80;;;21.50;;
40058;SDS011;25763;49.972;8.568;2023-05-15T00:55:35;23.75;;;22.45;;
40058;SDS011;25763;49.972;8.568;2023-05-15T00:58:01;23.90;;;22.63;;
40058;SDS011;25763;49.972;8.568;2023-05-15T01:00:27;21.70;;;20.48;;
40058;SDS011;25763;49.972;8.568;2023-05-15T01:02:56;22.02;;;20.83;;
40058;SDS011;25763;49.972;8.568;2023-05-15T01:05:21;21.75;;;20.58;;
40058;SDS011;25763;49.972;8.568;2023-05-15T01:07:48;23.23;;;21.98;;
40058;SDS011;25763;49.972;8.568;2023-05-15T01:10:19;24.08;;;22.48;;
40058;SDS011;25763;49.972;8.568;2023-05-15T01:12:45;23.05;;;21.83;;
40058;SDS011;25763;49.972;8.568;2023-05-15T01:15:11;23.83;;;22.55;;
40058;SDS011;25763;49.972;8.568;2023-05-15T01:17:37;21.48;;;20.27;;
40058;SDS011;25763;49.972;8.568;2023-05-15T01:20:03;22.27;;;21.00;;
40058;SDS011;25763;49.972;8.568;2023-05-15T01:28:21;17.30;;;16.30;;
40058;SDS011;25763;49.972;8.568;2023-05-15T01:30:52;17.45;;;16.45;;
40058;SDS011;25763;49.972;8.568;2023-05-15T01:33:21;17.55;;;16.55;;
40058;SDS011;25763;49.972;8.568;2023-05-15T01:36:11;18.38;;;17.38;;
40058;SDS011;25763;49.972;8.568;2023-05-15T01:41:10;15.20;;;14.32;;
40058;SDS011;25763;49.972;8.568;2023-05-15T01:43:41;15.90;;;15.00;;
40058;SDS011;25763;49.972;8.568;2023-05-15T01:46:10;15.98;;;15.07;;
40058;SDS011;25763;49.972;8.568;2023-05-15T01:48:38;13.30;;;12.52;;
40058;SDS011;25763;49.972;8.568;2023-05-15T01:51:05;14.20;;;13.40;;
40058;SDS011;25763;49.972;8.568;2023-05-15T01:53:33;15.13;;;14.23;;
40058;SDS011;25763;49.972;8.568;2023-05-15T01:56:00;14.95;;;14.05;;
40058;SDS011;25763;49.972;8.568;2023-05-15T01:58:27;15.55;;;14.65;;
40058;SDS011;25763;49.972;8.568;2023-05-15T02:00:54;13.25;;;12.48;;
40058;SDS011;25763;49.972;8.568;2023-05-15T02:03:20;14.20;;;13.32;;
40058;SDS011;25763;49.972;8.568;2023-05-15T02:05:46;13.13;;;12.30;;
40058;SDS011;25763;49.972;8.568;2023-05-15T02:08:12;13.13;;;12.32;;
40058;SDS011;25763;49.972;8.568;2023-05-15T02:10:37;12.25;;;11.45;;
40058;SDS011;25763;49.972;8.568;2023-05-15T02:13:04;11.80;;;11.10;;
40058;SDS011;25763;49.972;8.568;2023-05-15T02:15:32;11.82;;;11.13;;
40058;SDS011;25763;49.972;8.568;2023-05-15T02:17:58;12.10;;;11.40;;
40058;SDS011;25763;49.972;8.568;2023-05-15T02:20:23;13.13;;;12.32;;
40058;SDS011;25763;49.972;8.568;2023-05-15T02:22:49;11.38;;;10.68;;
40058;SDS011;25763;49.972;8.568;2023-05-15T02:25:14;11.55;;;10.85;;
40058;SDS011;25763;49.972;8.568;2023-05-15T02:30:16;11.52;;;10.80;;
40058;SDS011;25763;49.972;8.568;2023-05-15T02:32:47;10.93;;;10.23;;
40058;SDS011;25763;49.972;8.568;2023-05-15T02:35:31;10.52;;;9.93;;
40058;SDS011;25763;49.972;8.568;2023-05-15T02:38:22;11.25;;;10.55;;
40058;SDS011;25763;49.972;8.568;2023-05-15T02:41:07;12.03;;;11.33;;
40058;SDS011;25763;49.972;8.568;2023-05-15T02:43:34;12.30;;;11.50;;
40058;SDS011;25763;49.972;8.568;2023-05-15T02:46:00;13.00;;;12.20;;
40058;SDS011;25763;49.972;8.568;2023-05-15T02:48:27;13.30;;;12.50;;
40058;SDS011;25763;49.972;8.568;2023-05-15T02:50:53;14.57;;;13.68;;
40058;SDS011;25763;49.972;8.568;2023-05-15T02:53:19;14.13;;;13.32;;
40058;SDS011;25763;49.972;8.568;2023-05-15T02:55:44;15.15;;;14.25;;
40058;SDS011;25763;49.972;8.568;2023-05-15T02:58:09;13.88;;;13.07;;
40058;SDS011;25763;49.972;8.568;2023-05-15T03:00:35;14.90;;;14.00;;
40058;SDS011;25763;49.972;8.568;2023-05-15T03:03:00;15.70;;;14.80;;
40058;SDS011;25763;49.972;8.568;2023-05-15T03:05:26;15.18;;;14.27;;
40058;SDS011;25763;49.972;8.568;2023-05-15T03:07:51;14.73;;;13.90;;
40058;SDS011;25763;49.972;8.568;2023-05-15T03:10:16;14.32;;;13.52;;
40058;SDS011;25763;49.972;8.568;2023-05-15T03:12:42;14.27;;;13.40;;
40058;SDS011;25763;49.972;8.568;2023-05-15T03:15:07;14.20;;;13.40;;
40058;SDS011;25763;49.972;8.568;2023-05-15T03:17:33;16.00;;;15.10;;
40058;SDS011;25763;49.972;8.568;2023-05-15T03:19:58;16.23;;;15.13;;
40058;SDS011;25763;49.972;8.568;2023-05-15T03:22:23;16.10;;;14.93;;
40058;SDS011;25763;49.972;8.568;2023-05-15T03:24:49;14.85;;;14.05;;
40058;SDS011;25763;49.972;8.568;2023-05-15T03:27:14;15.35;;;14.45;;
40058;SDS011;25763;49.972;8.568;2023-05-15T03:29:40;14.13;;;13.32;;
40058;SDS011;25763;49.972;8.568;2023-05-15T03:32:06;14.80;;;13.95;;
40058;SDS011;25763;49.972;8.568;2023-05-15T03:34:31;14.85;;;13.95;;
40058;SDS011;25763;49.972;8.568;2023-05-15T03:36:57;13.73;;;12.93;;
40058;SDS011;25763;49.972;8.568;2023-05-15T03:39:22;13.80;;;13.00;;
40058;SDS011;25763;49.972;8.568;2023-05-15T03:41:47;14.55;;;13.65;;
40058;SDS011;25763;49.972;8.568;2023-05-15T03:44:13;15.70;;;14.23;;
40058;SDS011;25763;49.972;8.568;2023-05-15T03:46:38;14.40;;;13.60;;
40058;SDS011;25763;49.972;8.568;2023-05-15T03:49:03;13.77;;;12.98;;
40058;SDS011;25763;49.972;8.568;2023-05-15T03:51:29;14.05;;;13.25;;
40058;SDS011;25763;49.972;8.568;2023-05-15T03:53:54;14.65;;;13.80;;
40058;SDS011;25763;49.972;8.568;2023-05-15T03:56:20;13.73;;;12.93;;
40058;SDS011;25763;49.972;8.568;2023-05-15T03:58:45;14.30;;;13.50;;
40058;SDS011;25763;49.972;8.568;2023-05-15T04:01:10;15.65;;;14.75;;
40058;SDS011;25763;49.972;8.568;2023-05-15T04:03:36;14.48;;;13.68;;
40058;SDS011;25763;49.972;8.568;2023-05-15T04:06:01;13.85;;;13.05;;
40058;SDS011;25763;49.972;8.568;2023-05-15T04:08:26;14.40;;;13.60;;
40058;SDS011;25763;49.972;8.568;2023-05-15T04:10:52;14.68;;;13.77;;
40058;SDS011;25763;49.972;8.568;2023-05-15T04:13:17;13.05;;;12.30;;
40058;SDS011;25763;49.972;8.568;2023-05-15T04:15:42;13.80;;;13.00;;
40058;SDS011;25763;49.972;8.568;2023-05-15T04:18:08;13.30;;;12.50;;
40058;SDS011;25763;49.972;8.568;2023-05-15T04:20:33;12.60;;;11.80;;
40058;SDS011;25763;49.972;8.568;2023-05-15T04:22:59;12.10;;;11.40;;
40058;SDS011;25763;49.972;8.568;2023-05-15T04:25:24;12.13;;;11.43;;
40058;SDS011;25763;49.972;8.568;2023-05-15T04:27:50;11.75;;;11.05;;
40058;SDS011;25763;49.972;8.568;2023-05-15T04:30:15;11.80;;;11.05;;
40058;SDS011;25763;49.972;8.568;2023-05-15T04:32:41;12.30;;;11.55;;
40058;SDS011;25763;49.972;8.568;2023-05-15T04:35:07;11.05;;;10.35;;
40058;SDS011;25763;49.972;8.568;2023-05-15T04:37:34;11.07;;;10.38;;
40058;SDS011;25763;49.972;8.568;2023-05-15T04:40:00;11.40;;;10.70;;
40058;SDS011;25763;49.972;8.568;2023-05-15T04:42:25;11.52;;;10.82;;
40058;SDS011;25763;49.972;8.568;2023-05-15T04:44:51;12.18;;;11.48;;
40058;SDS011;25763;49.972;8.568;2023-05-15T04:47:17;12.20;;;11.50;;
40058;SDS011;25763;49.972;8.568;2023-05-15T04:49:42;12.57;;;11.77;;
40058;SDS011;25763;49.972;8.568;2023-05-15T04:52:08;13.27;;;12.48;;
40058;SDS011;25763;49.972;8.568;2023-05-15T04:54:33;12.93;;;12.13;;
40058;SDS011;25763;49.972;8.568;2023-05-15T04:56:58;13.70;;;12.90;;
40058;SDS011;25763;49.972;8.568;2023-05-15T04:59:24;14.13;;;13.32;;
40058;SDS011;25763;49.972;8.568;2023-05-15T05:01:50;13.05;;;12.20;;
40058;SDS011;25763;49.972;8.568;2023-05-15T05:04:15;13.02;;;12.23;;
40058;SDS011;25763;49.972;8.568;2023-05-15T05:06:43;12.95;;;12.15;;
40058;SDS011;25763;49.972;8.568;2023-05-15T05:09:09;11.75;;;11.05;;
40058;SDS011;25763;49.972;8.568;2023-05-15T05:11:35;11.48;;;10.77;;
40058;SDS011;25763;49.972;8.568;2023-05-15T05:14:00;12.52;;;11.73;;
40058;SDS011;25763;49.972;8.568;2023-05-15T05:16:25;10.82;;;10.13;;
40058;SDS011;25763;49.972;8.568;2023-05-15T05:18:51;15.10;;;11.20;;
40058;SDS011;25763;49.972;8.568;2023-05-15T05:21:16;10.65;;;9.95;;
40058;SDS011;25763;49.972;8.568;2023-05-15T05:23:42;11.02;;;10.32;;
40058;SDS011;25763;49.972;8.568;2023-05-15T05:26:07;11.30;;;10.60;;
40058;SDS011;25763;49.972;8.568;2023-05-15T05:28:32;13.32;;;12.43;;
40058;SDS011;25763;49.972;8.568;2023-05-15T05:30:58;12.52;;;11.73;;
40058;SDS011;25763;49.972;8.568;2023-05-15T05:33:23;12.77;;;12.07;;
40058;SDS011;25763;49.972;8.568;2023-05-15T05:35:48;14.45;;;13.60;;
40058;SDS011;25763;49.972;8.568;2023-05-15T05:38:15;12.85;;;12.05;;
40058;SDS011;25763;49.972;8.568;2023-05-15T05:40:40;13.68;;;12.88;;
40058;SDS011;25763;49.972;8.568;2023-05-15T05:43:06;12.07;;;11.38;;
40058;SDS011;25763;49.972;8.568;2023-05-15T05:45:32;14.65;;;13.63;;
40058;SDS011;25763;49.972;8.568;2023-05-15T05:47:57;15.45;;;14.55;;
40058;SDS011;25763;49.972;8.568;2023-05-15T05:50:22;17.95;;;16.92;;
40058;SDS011;25763;49.972;8.568;2023-05-15T05:52:48;23.95;;;22.67;;
40058;SDS011;25763;49.972;8.568;2023-05-15T05:55:14;25.20;;;23.88;;
40058;SDS011;25763;49.972;8.568;2023-05-15T05:57:39;32.60;;;30.85;;
40058;SDS011;25763;49.972;8.568;2023-05-15T06:00:05;37.53;;;35.58;;
40058;SDS011;25763;49.972;8.568;2023-05-15T06:02:35;39.40;;;37.28;;
40058;SDS011;25763;49.972;8.568;2023-05-15T06:05:04;36.72;;;34.83;;
40058;SDS011;25763;49.972;8.568;2023-05-15T06:07:30;31.55;;;29.85;;
40058;SDS011;25763;49.972;8.568;2023-05-15T06:09:56;26.20;;;24.80;;
40058;SDS011;25763;49.972;8.568;2023-05-15T06:12:21;21.75;;;20.55;;
40058;SDS011;25763;49.972;8.568;2023-05-15T06:14:46;20.58;;;19.40;;
40058;SDS011;25763;49.972;8.568;2023-05-15T06:17:12;16.33;;;15.43;;
40058;SDS011;25763;49.972;8.568;2023-05-15T06:19:37;11.63;;;10.93;;
40058;SDS011;25763;49.972;8.568;2023-05-15T06:22:02;11.65;;;10.95;;
40058;SDS011;25763;49.972;8.568;2023-05-15T06:24:28;10.90;;;10.20;;
40058;SDS011;25763;49.972;8.568;2023-05-15T06:26:53;12.38;;;11.68;;
40058;SDS011;25763;49.972;8.568;2023-05-15T06:29:19;12.38;;;11.57;;
40058;SDS011;25763;49.972;8.568;2023-05-15T06:31:45;13.15;;;12.35;;
40058;SDS011;25763;49.972;8.568;2023-05-15T06:34:10;17.73;;;16.73;;
40058;SDS011;25763;49.972;8.568;2023-05-15T06:36:36;21.05;;;19.85;;
40058;SDS011;25763;49.972;8.568;2023-05-15T06:39:01;16.20;;;15.30;;
40058;SDS011;25763;49.972;8.568;2023-05-15T06:41:26;18.90;;;17.88;;
40058;SDS011;25763;49.972;8.568;2023-05-15T06:43:52;24.33;;;23.02;;
40058;SDS011;25763;49.972;8.568;2023-05-15T06:46:19;28.20;;;26.70;;
40058;SDS011;25763;49.972;8.568;2023-05-15T06:48:45;26.02;;;24.63;;
40058;SDS011;25763;49.972;8.568;2023-05-15T06:51:11;28.52;;;26.95;;
40058;SDS011;25763;49.972;8.568;2023-05-15T06:53:36;27.88;;;26.38;;
40058;SDS011;25763;49.972;8.568;2023-05-15T06:56:01;28.40;;;26.85;;
40058;SDS011;25763;49.972;8.568;2023-05-15T06:58:27;29.00;;;27.42;;
40058;SDS011;25763;49.972;8.568;2023-05-15T07:00:52;27.92;;;26.45;;
40058;SDS011;25763;49.972;8.568;2023-05-15T07:03:18;29.75;;;28.15;;
40058;SDS011;25763;49.972;8.568;2023-05-15T07:05:43;29.58;;;28.05;;
40058;SDS011;25763;49.972;8.568;2023-05-15T07:08:09;29.13;;;27.63;;
40058;SDS011;25763;49.972;8.568;2023-05-15T07:10:34;25.98;;;24.52;;
40058;SDS011;25763;49.972;8.568;2023-05-15T07:13:00;21.73;;;20.52;;
40058;SDS011;25763;49.972;8.568;2023-05-15T07:15:25;24.98;;;23.55;;
40058;SDS011;25763;49.972;8.568;2023-05-15T07:17:50;28.30;;;26.80;;
40058;SDS011;25763;49.972;8.568;2023-05-15T07:20:16;24.83;;;23.50;;
40058;SDS011;25763;49.972;8.568;2023-05-15T07:22:41;18.83;;;17.83;;
40058;SDS011;25763;49.972;8.568;2023-05-15T07:25:07;18.98;;;17.98;;
40058;SDS011;25763;49.972;8.568;2023-05-15T07:27:32;21.67;;;20.50;;
40058;SDS011;25763;49.972;8.568;2023-05-15T07:29:57;23.80;;;22.52;;
40058;SDS011;25763;49.972;8.568;2023-05-15T07:32:23;16.65;;;15.75;;
40058;SDS011;25763;49.972;8.568;2023-05-15T07:34:48;17.50;;;16.50;;
40058;SDS011;25763;49.972;8.568;2023-05-15T07:37:14;16.77;;;15.77;;
40058;SDS011;25763;49.972;8.568;2023-05-15T07:39:39;14.88;;;13.98;;
40058;SDS011;25763;49.972;8.568;2023-05-15T07:42:04;13.63;;;12.82;;
40058;SDS011;25763;49.972;8.568;2023-05-15T07:44:30;12.85;;;12.10;;
40058;SDS011;25763;49.972;8.568;2023-05-15T07:46:55;11.70;;;11.00;;
40058;SDS011;25763;49.972;8.568;2023-05-15T07:49:22;12.45;;;11.75;;
40058;SDS011;25763;49.972;8.568;2023-05-15T07:51:47;12.15;;;11.45;;
40058;SDS011;25763;49.972;8.568;2023-05-15T07:54:12;12.73;;;12.02;;
40058;SDS011;25763;49.972;8.568;2023-05-15T07:56:38;12.25;;;11.55;;
40058;SDS011;25763;49.972;8.568;2023-05-15T07:59:03;13.10;;;12.30;;
40058;SDS011;25763;49.972;8.568;2023-05-15T08:01:29;13.70;;;12.90;;
40058;SDS011;25763;49.972;8.568;2023-05-15T08:03:54;13.27;;;12.48;;
40058;SDS011;25763;49.972;8.568;2023-05-15T08:06:19;12.93;;;12.15;;
40058;SDS011;25763;49.972;8.568;2023-05-15T08:08:45;13.23;;;12.43;;
40058;SDS011;25763;49.972;8.568;2023-05-15T08:11:10;14.98;;;13.98;;
40058;SDS011;25763;49.972;8.568;2023-05-15T08:13:35;13.93;;;13.13;;
40058;SDS011;25763;49.972;8.568;2023-05-15T08:16:01;14.10;;;13.20;;
40058;SDS011;25763;49.972;8.568;2023-05-15T08:18:26;15.68;;;14.68;;
40058;SDS011;25763;49.972;8.568;2023-05-15T08:20:51;15.60;;;14.70;;
40058;SDS011;25763;49.972;8.568;2023-05-15T08:23:17;15.35;;;14.45;;
40058;SDS011;25763;49.972;8.568;2023-05-15T08:25:42;14.52;;;13.73;;
40058;SDS011;25763;49.972;8.568;2023-05-15T08:28:09;15.70;;;14.80;;
40058;SDS011;25763;49.972;8.568;2023-05-15T08:30:34;15.82;;;14.93;;
40058;SDS011;25763;49.972;8.568;2023-05-15T08:33:00;15.88;;;14.98;;
40058;SDS011;25763;49.972;8.568;2023-05-15T08:35:25;16.13;;;15.23;;
40058;SDS011;25763;49.972;8.568;2023-05-15T08:37:50;16.80;;;15.80;;
40058;SDS011;25763;49.972;8.568;2023-05-15T08:40:16;16.55;;;15.20;;
40058;SDS011;25763;49.972;8.568;2023-05-15T08:42:42;15.93;;;15.02;;
40058;SDS011;25763;49.972;8.568;2023-05-15T08:45:11;15.55;;;14.65;;
40058;SDS011;25763;49.972;8.568;2023-05-15T08:47:38;15.63;;;14.73;;
40058;SDS011;25763;49.972;8.568;2023-05-15T08:50:08;16.70;;;15.77;;
40058;SDS011;25763;49.972;8.568;2023-05-15T08:52:43;17.17;;;16.17;;
40058;SDS011;25763;49.972;8.568;2023-05-15T08:55:10;17.05;;;16.05;;
40058;SDS011;25763;49.972;8.568;2023-05-15T08:57:36;20.13;;;19.02;;
40058;SDS011;25763;49.972;8.568;2023-05-15T09:00:03;18.80;;;17.73;;
40058;SDS011;25763;49.972;8.568;2023-05-15T09:02:38;18.52;;;17.50;;
40058;SDS011;25763;49.972;8.568;2023-05-15T09:05:04;18.45;;;17.45;;
40058;SDS011;25763;49.972;8.568;2023-05-15T09:07:30;18.52;;;17.50;;
40058;SDS011;25763;49.972;8.568;2023-05-15T09:09:57;19.98;;;18.88;;
40058;SDS011;25763;49.972;8.568;2023-05-15T09:12:23;19.55;;;18.45;;
40058;SDS011;25763;49.972;8.568;2023-05-15T09:14:50;22.88;;;21.48;;
40058;SDS011;25763;49.972;8.568;2023-05-15T09:17:15;30.52;;;28.92;;
40058;SDS011;25763;49.972;8.568;2023-05-15T09:19:41;28.75;;;27.17;;
40058;SDS011;25763;49.972;8.568;2023-05-15T09:22:14;32.00;;;30.27;;
40058;SDS011;25763;49.972;8.568;2023-05-15T09:24:43;24.70;;;23.30;;
40058;SDS011;25763;49.972;8.568;2023-05-15T09:27:08;31.55;;;29.92;;
40058;SDS011;25763;49.972;8.568;2023-05-15T09:29:35;43.50;;;41.30;;
40058;SDS011;25763;49.972;8.568;2023-05-15T09:32:03;35.03;;;33.17;;
40058;SDS011;25763;49.972;8.568;2023-05-15T09:34:33;43.03;;;40.75;;
40058;SDS011;25763;49.972;8.568;2023-05-15T09:37:02;60.92;;;57.88;;
40058;SDS011;25763;49.972;8.568;2023-05-15T09:39:28;50.97;;;48.35;;
40058;SDS011;25763;49.972;8.568;2023-05-15T09:42:15;73.97;;;70.25;;
40058;SDS011;25763;49.972;8.568;2023-05-15T09:44:41;68.43;;;65.00;;
40058;SDS011;25763;49.972;8.568;2023-05-15T09:47:07;74.20;;;70.50;;
40058;SDS011;25763;49.972;8.568;2023-05-15T09:52:06;84.93;;;80.53;;
40058;SDS011;25763;49.972;8.568;2023-05-15T09:54:33;54.63;;;51.78;;
40058;SDS011;25763;49.972;8.568;2023-05-15T09:57:06;43.75;;;41.45;;
40058;SDS011;25763;49.972;8.568;2023-05-15T09:59:32;42.22;;;40.03;;
40058;SDS011;25763;49.972;8.568;2023-05-15T10:01:58;61.08;;;57.92;;
40058;SDS011;25763;49.972;8.568;2023-05-15T10:04:24;36.05;;;34.17;;
40058;SDS011;25763;49.972;8.568;2023-05-15T10:06:50;26.40;;;25.00;;
40058;SDS011;25763;49.972;8.568;2023-05-15T10:09:17;22.85;;;21.65;;
40058;SDS011;25763;49.972;8.568;2023-05-15T10:11:43;46.33;;;43.95;;
40058;SDS011;25763;49.972;8.568;2023-05-15T10:14:14;38.92;;;36.58;;
40058;SDS011;25763;49.972;8.568;2023-05-15T10:16:41;31.45;;;29.75;;
40058;SDS011;25763;49.972;8.568;2023-05-15T10:19:07;23.55;;;21.95;;
40058;SDS011;25763;49.972;8.568;2023-05-15T10:21:35;23.30;;;21.98;;
40058;SDS011;25763;49.972;8.568;2023-05-15T10:24:02;35.33;;;33.42;;
40058;SDS011;25763;49.972;8.568;2023-05-15T10:29:04;58.47;;;55.50;;
40058;SDS011;25763;49.972;8.568;2023-05-15T10:31:31;53.58;;;50.70;;
40058;SDS011;25763;49.972;8.568;2023-05-15T10:33:57;55.40;;;52.60;;
40058;SDS011;25763;49.972;8.568;2023-05-15T10:36:24;51.33;;;48.55;;
40058;SDS011;25763;49.972;8.568;2023-05-15T10:38:51;68.65;;;65.18;;
40058;SDS011;25763;49.972;8.568;2023-05-15T10:41:16;68.85;;;65.38;;
40058;SDS011;25763;49.972;8.568;2023-05-15T10:43:44;72.32;;;68.47;;
40058;SDS011;25763;49.972;8.568;2023-05-15T10:46:11;69.57;;;65.88;;
40058;SDS011;25763;49.972;8.568;2023-05-15T10:48:37;77.20;;;73.30;;
40058;SDS011;25763;49.972;8.568;2023-05-15T10:51:03;60.25;;;57.22;;
40058;SDS011;25763;49.972;8.568;2023-05-15T10:53:30;58.75;;;55.80;;
40058;SDS011;25763;49.972;8.568;2023-05-15T10:55:56;67.93;;;64.47;;
40058;SDS011;25763;49.972;8.568;2023-05-15T10:58:22;39.85;;;37.80;;
40058;SDS011;25763;49.972;8.568;2023-05-15T11:00:48;71.13;;;67.55;;
40058;SDS011;25763;49.972;8.568;2023-05-15T11:03:13;67.85;;;64.43;;
40058;SDS011;25763;49.972;8.568;2023-05-15T11:06:05;67.05;;;63.38;;
40058;SDS011;25763;49.972;8.568;2023-05-15T11:08:32;53.17;;;50.42;;
40058;SDS011;25763;49.972;8.568;2023-05-15T11:10:57;66.55;;;63.08;;
40058;SDS011;25763;49.972;8.568;2023-05-15T11:13:23;51.92;;;49.17;;
40058;SDS011;25763;49.972;8.568;2023-05-15T11:15:48;52.15;;;49.35;;
40058;SDS011;25763;49.972;8.568;2023-05-15T11:18:14;33.95;;;32.00;;
40058;SDS011;25763;49.972;8.568;2023-05-15T11:20:40;38.80;;;36.72;;
40058;SDS011;25763;49.972;8.568;2023-05-15T11:23:26;56.70;;;53.78;;
40058;SDS011;25763;49.972;8.568;2023-05-15T11:25:55;53.90;;;51.00;;
40058;SDS011;25763;49.972;8.568;2023-05-15T11:28:21;58.83;;;55.80;;
40058;SDS011;25763;49.972;8.568;2023-05-15T11:30:49;61.83;;;58.65;;
40058;SDS011;25763;49.972;8.568;2023-05-15T11:33:16;50.78;;;48.17;;
40058;SDS011;25763;49.972;8.568;2023-05-15T11:35:42;56.33;;;53.42;;
40058;SDS011;25763;49.972;8.568;2023-05-15T11:38:13;54.03;;;51.20;;
40058;SDS011;25763;49.972;8.568;2023-05-15T11:40:44;58.03;;;55.05;;
40058;SDS011;25763;49.972;8.568;2023-05-15T11:43:27;57.83;;;54.65;;
40058;SDS011;25763;49.972;8.568;2023-05-15T11:45:54;59.08;;;56.05;;
40058;SDS011;25763;49.972;8.568;2023-05-15T11:48:22;57.67;;;54.55;;
40058;SDS011;25763;49.972;8.568;2023-05-15T11:50:49;47.15;;;44.42;;
40058;SDS011;25763;49.972;8.568;2023-05-15T11:53:17;53.70;;;49.85;;
40058;SDS011;25763;49.972;8.568;2023-05-15T11:55:43;72.03;;;68.45;;
40058;SDS011;25763;49.972;8.568;2023-05-15T11:58:20;61.60;;;58.45;;
40058;SDS011;25763;49.972;8.568;2023-05-15T12:00:48;39.90;;;37.88;;
40058;SDS011;25763;49.972;8.568;2023-05-15T12:03:31;44.70;;;42.30;;
40058;SDS011;25763;49.972;8.568;2023-05-15T12:05:58;25.75;;;24.23;;
40058;SDS011;25763;49.972;8.568;2023-05-15T12:08:29;38.17;;;36.15;;
40058;SDS011;25763;49.972;8.568;2023-05-15T12:10:59;42.72;;;39.92;;
40058;SDS011;25763;49.972;8.568;2023-05-15T12:13:25;29.05;;;27.35;;
40058;SDS011;25763;49.972;8.568;2023-05-15T12:15:50;40.72;;;38.63;;
40058;SDS011;25763;49.972;8.568;2023-05-15T12:18:16;35.97;;;34.05;;
40058;SDS011;25763;49.972;8.568;2023-05-15T12:20:41;34.05;;;32.17;;
40058;SDS011;25763;49.972;8.568;2023-05-15T12:23:13;24.92;;;23.60;;
40058;SDS011;25763;49.972;8.568;2023-05-15T12:25:39;26.05;;;24.65;;
40058;SDS011;25763;49.972;8.568;2023-05-15T12:28:05;27.02;;;25.60;;
40058;SDS011;25763;49.972;8.568;2023-05-15T12:30:31;26.02;;;24.63;;
40058;SDS011;25763;49.972;8.568;2023-05-15T12:33:01;42.58;;;40.38;;
40058;SDS011;25763;49.972;8.568;2023-05-15T12:35:27;40.83;;;38.67;;
40058;SDS011;25763;49.972;8.568;2023-05-15T12:37:52;44.67;;;42.35;;
40058;SDS011;25763;49.972;8.568;2023-05-15T12:40:19;37.80;;;35.80;;
40058;SDS011;25763;49.972;8.568;2023-05-15T12:42:45;43.53;;;41.28;;
40058;SDS011;25763;49.972;8.568;2023-05-15T12:45:11;48.53;;;46.05;;
40058;SDS011;25763;49.972;8.568;2023-05-15T12:47:41;44.08;;;41.78;;
40058;SDS011;25763;49.972;8.568;2023-05-15T12:50:21;50.50;;;47.90;;
40058;SDS011;25763;49.972;8.568;2023-05-15T12:52:49;41.03;;;38.92;;
40058;SDS011;25763;49.972;8.568;2023-05-15T12:55:15;36.35;;;34.45;;
40058;SDS011;25763;49.972;8.568;2023-05-15T12:57:41;36.30;;;34.40;;
40058;SDS011;25763;49.972;8.568;2023-05-15T13:00:09;34.78;;;32.97;;
40058;SDS011;25763;49.972;8.568;2023-05-15T13:02:35;36.67;;;34.67;;
40058;SDS011;25763;49.972;8.568;2023-05-15T13:05:03;36.83;;;34.92;;
40058;SDS011;25763;49.972;8.568;2023-05-15T13:07:29;37.08;;;35.17;;
40058;SDS011;25763;49.972;8.568;2023-05-15T13:10:03;34.30;;;32.50;;
40058;SDS011;25763;49.972;8.568;2023-05-15T13:13:03;36.05;;;34.15;;
40058;SDS011;25763;49.972;8.568;2023-05-15T13:18:02;34.58;;;32.70;;
40058;SDS011;25763;49.972;8.568;2023-05-15T13:20:33;35.50;;;33.63;;
40058;SDS011;25763;49.972;8.568;2023-05-15T13:23:07;33.88;;;31.98;;
40058;SDS011;25763;49.972;8.568;2023-05-15T13:25:34;34.85;;;33.00;;
40058;SDS011;25763;49.972;8.568;2023-05-15T13:28:00;49.13;;;46.63;;
40058;SDS011;25763;49.972;8.568;2023-05-15T13:30:27;61.28;;;58.08;;
40058;SDS011;25763;49.972;8.568;2023-05-15T13:32:53;44.40;;;42.10;;
40058;SDS011;25763;49.972;8.568;2023-05-15T13:35:18;62.03;;;58.90;;
40058;SDS011;25763;49.972;8.568;2023-05-15T13:37:44;39.78;;;37.70;;
40058;SDS011;25763;49.972;8.568;2023-05-15T13:40:10;30.38;;;28.58;;
40058;SDS011;25763;49.972;8.568;2023-05-15T13:42:37;22.80;;;21.50;;
40058;SDS011;25763;49.972;8.568;2023-05-15T13:45:06;26.60;;;25.20;;
40058;SDS011;25763;49.972;8.568;2023-05-15T13:47:33;25.63;;;24.23;;
40058;SDS011;25763;49.972;8.568;2023-05-15T13:49:58;26.90;;;25.48;;
40058;SDS011;25763;49.972;8.568;2023-05-15T13:52:26;24.70;;;23.35;;
40058;SDS011;25763;49.972;8.568;2023-05-15T13:54:52;76.53;;;72.70;;
40058;SDS011;25763;49.972;8.568;2023-05-15T13:57:18;73.22;;;69.55;;
40058;SDS011;25763;49.972;8.568;2023-05-15T13:59:44;59.75;;;56.60;;
40058;SDS011;25763;49.972;8.568;2023-05-15T14:02:09;32.03;;;30.33;;
40058;SDS011;25763;49.972;8.568;2023-05-15T14:04:35;24.48;;;23.15;;
40058;SDS011;25763;49.972;8.568;2023-05-15T14:07:00;24.30;;;22.70;;
40058;SDS011;25763;49.972;8.568;2023-05-15T14:09:26;28.40;;;26.90;;
40058;SDS011;25763;49.972;8.568;2023-05-15T14:11:51;24.50;;;23.20;;
40058;SDS011;25763;49.972;8.568;2023-05-15T14:14:16;32.67;;;30.95;;
40058;SDS011;25763;49.972;8.568;2023-05-15T14:16:42;30.55;;;28.92;;
40058;SDS011;25763;49.972;8.568;2023-05-15T14:19:07;31.55;;;29.90;;
40058;SDS011;25763;49.972;8.568;2023-05-15T14:21:32;30.80;;;29.20;;
40058;SDS011;25763;49.972;8.568;2023-05-15T14:23:58;31.30;;;29.67;;
40058;SDS011;25763;49.972;8.568;2023-05-15T14:26:23;27.63;;;26.15;;
40058;SDS011;25763;49.972;8.568;2023-05-15T14:28:48;30.63;;;28.98;;
40058;SDS011;25763;49.972;8.568;2023-05-15T14:31:14;28.98;;;27.45;;
40058;SDS011;25763;49.972;8.568;2023-05-15T14:33:40;28.63;;;27.13;;
40058;SDS011;25763;49.972;8.568;2023-05-15T14:36:05;30.13;;;28.58;;
40058;SDS011;25763;49.972;8.568;2023-05-15T14:38:31;29.08;;;27.55;;